Time,TemperatureF,DewpointF,PressureIn,WindDirection,WindDirectionDegrees,WindSpeedMPH,WindSpeedGustMPH,Humidity,HourlyPrecipIn,Conditions,Clouds,dailyrainin,SolarRadiationWatts/m^2,SoftwareType,DateUTC
2013-02-25 00:01:00,33.6,32.0,30.12,NNE,31,5.9,8.1,94,0.00,RA,,0.00,0.0,WeatherDisplay:10.37,2013-02-24 23:01:00,
2013-02-25 00:06:00,33.6,32.0,30.13,NNE,20,4.4,6.0,94,0.00,RA,,0.00,0.0,WeatherDisplay:10.37,2013-02-24 23:06:00,
2013-02-25 00:11:00,33.6,32.0,30.13,NNE,23,3.8,8.1,94,0.00,RA,,0.00,0.0,WeatherDisplay:10.37,2013-02-24 23:11:00,
2013-02-25 00:16:00,33.6,32.0,30.13,NNE,24,4.1,6.0,94,0.00,RA,,0.00,0.0,WeatherDisplay:10.37,2013-02-24 23:16:00,
2013-02-25 00:21:00,33.6,32.0,30.13,NNE,20,2.8,5.8,94,0.00,RA,,0.00,0.0,WeatherDisplay:10.37,2013-02-24 23:21:00,
2013-02-25 00:26:00,33.7,32.1,30.13,NE,36,5.8,9.2,94,0.00,OVC,,0.00,0.0,WeatherDisplay:10.37,2013-02-24 23:26:00,
2013-02-25 00:31:00,33.7,31.9,30.13,ENE,58,5.6,8.1,93,0.00,OVC,,0.00,0.0,WeatherDisplay:10.37,2013-02-24 23:31:00,
2013-02-25 00:36:00,33.8,32.0,30.14,NNE,25,5.9,9.2,93,0.00,OVC,,0.00,0.0,WeatherDisplay:10.37,2013-02-24 23:36:00,
2013-02-25 00:41:00,33.8,32.0,30.13,NE,40,3.0,3.5,93,0.00,OVC,,0.00,0.0,WeatherDisplay:10.37,2013-02-24 23:41:00,
2013-02-25 00:46:00,33.9,32.1,30.14,NE,45,3.3,6.0,93,0.00,OVC,,0.00,0.0,WeatherDisplay:10.37,2013-02-24 23:46:00,
2013-02-25 00:51:00,33.9,32.1,30.14,ENE,68,3.9,8.1,93,0.00,OVC,,0.00,0.0,WeatherDisplay:10.37,2013-02-24 23:51:00,
2013-02-25 00:56:00,33.9,32.1,30.13,NNE,26,4.7,9.2,93,0.00,OVC,,0.00,0.0,WeatherDisplay:10.37,2013-02-24 23:56:00,
2013-02-25 01:01:00,33.9,32.1,30.13,NNE,29,3.6,5.8,93,0.00,OVC,,0.00,0.0,WeatherDisplay:10.37,2013-02-25 00:01:00,
2013-02-25 01:06:00,33.9,32.1,30.13,NNE,21,4.8,9.0,93,0.00,OVC,,0.00,0.0,WeatherDisplay:10.37,2013-02-25 00:06:00,
2013-02-25 01:11:00,33.9,32.1,30.13,NNE,12,6.0,8.1,93,0.00,OVC,,0.00,0.0,WeatherDisplay:10.37,2013-02-25 00:11:00,
2013-02-25 01:16:00,33.9,32.1,30.12,NNW,338,6.3,11.5,93,0.00,OVC,,0.00,0.0,WeatherDisplay:10.37,2013-02-25 00:16:00,
2013-02-25 01:21:00,33.9,32.1,30.12,NNE,18,6.1,9.2,93,0.00,OVC,,0.00,0.0,WeatherDisplay:10.37,2013-02-25 00:21:00,
2013-02-25 01:26:00,33.9,32.1,30.12,NNE,17,5.1,8.1,93,0.00,OVC,,0.00,0.0,WeatherDisplay:10.37,2013-02-25 00:26:00,
2013-02-25 01:31:00,34.0,32.2,30.12,North,9,1.8,5.0,93,0.00,OVC,,0.00,0.0,WeatherDisplay:10.37,2013-02-25 00:31:00,
2013-02-25 01:36:00,34.0,32.2,30.12,North,1,6.0,9.2,93,0.00,OVC,,0.00,0.0,WeatherDisplay:10.37,2013-02-25 00:36:00,
2013-02-25 01:41:00,34.0,32.2,30.12,NNE,14,5.7,11.5,93,0.00,OVC,,0.00,0.0,WeatherDisplay:10.37,2013-02-25 00:41:00,
2013-02-25 01:46:00,34.0,32.2,30.12,NE,34,3.4,6.9,93,0.00,OVC,,0.00,0.0,WeatherDisplay:10.37,2013-02-25 00:46:00,
2013-02-25 01:51:00,34.0,32.2,30.13,ENE,59,4.1,6.0,93,0.00,OVC,,0.00,0.0,WeatherDisplay:10.37,2013-02-25 00:51:00,
2013-02-25 01:56:00,34.0,32.2,30.14,NE,51,6.0,8.1,93,0.00,OVC,,0.00,0.0,WeatherDisplay:10.37,2013-02-25 00:56:00,
2013-02-25 02:01:00,34.0,32.2,30.14,ENE,65,5.6,8.1,93,0.00,OVC,,0.00,0.0,WeatherDisplay:10.37,2013-02-25 01:01:00,
2013-02-25 02:06:00,34.0,32.2,30.13,NE,56,4.0,10.0,93,0.00,OVC,,0.00,0.0,WeatherDisplay:10.37,2013-02-25 01:06:00,
2013-02-25 02:11:00,34.0,32.2,30.13,NE,50,4.2,8.1,93,0.00,OVC,,0.00,0.0,WeatherDisplay:10.37,2013-02-25 01:11:00,
2013-02-25 02:16:00,34.0,32.2,30.13,NE,40,3.9,5.8,93,0.00,OVC,,0.00,0.0,WeatherDisplay:10.37,2013-02-25 01:16:00,
2013-02-25 02:21:00,34.0,32.2,30.13,NNE,31,3.4,5.8,93,0.00,OVC,,0.00,0.0,WeatherDisplay:10.37,2013-02-25 01:21:00,
2013-02-25 02:26:00,34.0,32.2,30.13,NNE,30,5.4,8.1,93,0.00,OVC,,0.00,0.0,WeatherDisplay:10.37,2013-02-25 01:26:00,
2013-02-25 02:31:00,34.1,32.3,30.13,NE,38,5.4,8.1,93,0.00,OVC,,0.00,0.0,WeatherDisplay:10.37,2013-02-25 01:31:00,
2013-02-25 02:36:00,34.1,32.3,30.13,NE,45,4.4,7.0,93,0.00,OVC,,0.00,0.0,WeatherDisplay:10.37,2013-02-25 01:36:00,
2013-02-25 02:41:00,34.1,32.3,30.13,ENE,63,7.9,10.4,93,0.00,OVC,,0.00,0.0,WeatherDisplay:10.37,2013-02-25 01:41:00,
2013-02-25 02:46:00,34.1,32.3,30.13,NE,54,7.0,11.5,93,0.00,OVC,,0.00,0.0,WeatherDisplay:10.37,2013-02-25 01:46:00,
2013-02-25 02:51:00,34.1,32.3,30.13,ENE,73,7.0,11.5,93,0.00,OVC,,0.00,0.0,WeatherDisplay:10.37,2013-02-25 01:51:00,
2013-02-25 02:56:00,34.1,32.3,30.12,NE,55,6.3,10.4,93,0.00,OVC,,0.00,0.0,WeatherDisplay:10.37,2013-02-25 01:56:00,
2013-02-25 03:01:00,34.1,32.3,30.12,NNE,24,4.0,8.1,93,0.00,OVC,,0.00,0.0,WeatherDisplay:10.37,2013-02-25 02:01:00,
2013-02-25 03:06:00,34.1,32.3,30.13,NE,56,4.5,10.4,93,0.00,OVC,,0.00,0.0,WeatherDisplay:10.37,2013-02-25 02:06:00,
2013-02-25 03:11:00,34.1,32.3,30.13,NE,49,5.3,11.5,93,0.00,OVC,,0.00,0.0,WeatherDisplay:10.37,2013-02-25 02:11:00,
2013-02-25 03:16:00,34.1,32.3,30.12,NNE,32,4.1,7.0,93,0.00,OVC,,0.00,0.0,WeatherDisplay:10.37,2013-02-25 02:16:00,
2013-02-25 03:21:00,34.1,32.3,30.13,NE,52,6.5,11.5,93,0.00,OVC,,0.00,0.0,WeatherDisplay:10.37,2013-02-25 02:21:00,
2013-02-25 03:26:00,34.1,32.3,30.13,NE,51,4.8,8.1,93,0.00,OVC,,0.00,0.0,WeatherDisplay:10.37,2013-02-25 02:26:00,
2013-02-25 03:31:00,34.1,32.3,30.13,NE,37,4.3,6.0,93,0.00,OVC,,0.00,0.0,WeatherDisplay:10.37,2013-02-25 02:31:00,
2013-02-25 03:36:00,34.2,32.1,30.13,NE,34,6.1,8.0,92,0.00,OVC,,0.00,0.0,WeatherDisplay:10.37,2013-02-25 02:36:00,
2013-02-25 03:41:00,34.1,32.0,30.13,NE,38,5.7,10.4,92,0.00,OVC,,0.00,0.0,WeatherDisplay:10.37,2013-02-25 02:41:00,
2013-02-25 03:46:00,34.1,32.0,30.13,NE,41,7.0,11.5,92,0.00,OVC,,0.00,0.0,WeatherDisplay:10.37,2013-02-25 02:46:00,
2013-02-25 03:51:00,34.2,32.1,30.13,NNE,28,9.0,16.1,92,0.00,OVC,,0.00,0.0,WeatherDisplay:10.37,2013-02-25 02:51:00,
2013-02-25 03:56:00,34.2,32.1,30.13,NE,38,5.5,11.5,92,0.00,OVC,,0.00,0.0,WeatherDisplay:10.37,2013-02-25 02:56:00,
2013-02-25 04:01:00,34.1,32.0,30.13,NE,40,8.9,12.7,92,0.00,OVC,,0.00,0.0,WeatherDisplay:10.37,2013-02-25 03:01:00,
2013-02-25 04:06:00,34.1,32.3,30.13,NE,37,3.5,5.8,93,0.00,OVC,,0.00,0.0,WeatherDisplay:10.37,2013-02-25 03:06:00,
2013-02-25 04:11:00,34.2,32.4,30.13,ENE,59,6.9,10.4,93,0.00,OVC,,0.00,0.0,WeatherDisplay:10.37,2013-02-25 03:11:00,
2013-02-25 04:16:00,34.1,32.3,30.13,NE,53,4.5,10.4,93,0.00,OVC,,0.00,0.0,WeatherDisplay:10.37,2013-02-25 03:16:00,
2013-02-25 04:21:00,34.2,32.4,30.13,NNE,22,6.7,10.4,93,0.00,OVC,,0.00,0.0,WeatherDisplay:10.37,2013-02-25 03:21:00,
2013-02-25 04:26:00,34.2,32.4,30.13,ENE,61,4.1,6.9,93,0.00,OVC,,0.00,0.0,WeatherDisplay:10.37,2013-02-25 03:26:00,
2013-02-25 04:31:00,34.2,32.4,30.13,NNE,12,7.1,10.4,93,0.00,OVC,,0.00,0.0,WeatherDisplay:10.37,2013-02-25 03:31:00,
2013-02-25 04:36:00,34.3,32.5,30.14,NE,40,4.9,11.5,93,0.00,OVC,,0.00,0.0,WeatherDisplay:10.37,2013-02-25 03:36:00,
2013-02-25 04:41:00,34.3,32.5,30.14,NE,45,5.2,8.1,93,0.00,OVC,,0.00,0.0,WeatherDisplay:10.37,2013-02-25 03:41:00,
2013-02-25 04:46:00,34.3,32.5,30.14,NE,35,4.3,11.5,93,0.00,OVC,,0.00,0.0,WeatherDisplay:10.37,2013-02-25 03:46:00,
2013-02-25 04:51:00,34.4,32.6,30.14,ENE,65,6.4,11.5,93,0.00,OVC,,0.00,0.0,WeatherDisplay:10.37,2013-02-25 03:51:00,
2013-02-25 04:56:00,34.4,32.6,30.14,NE,51,4.9,8.1,93,0.00,OVC,,0.00,0.0,WeatherDisplay:10.37,2013-02-25 03:56:00,
2013-02-25 05:01:00,34.4,32.3,30.15,NE,34,6.8,13.8,92,0.00,OVC,,0.00,0.0,WeatherDisplay:10.37,2013-02-25 04:01:00,
2013-02-25 05:06:00,34.4,32.3,30.14,NE,41,4.1,8.1,92,0.00,OVC,,0.00,0.0,WeatherDisplay:10.37,2013-02-25 04:06:00,
2013-02-25 05:11:00,34.4,32.3,30.14,North,5,6.5,11.5,92,0.00,OVC,,0.00,0.0,WeatherDisplay:10.37,2013-02-25 04:11:00,
2013-02-25 05:16:00,34.4,32.3,30.14,NNE,15,3.1,8.1,92,0.00,OVC,,0.00,0.0,WeatherDisplay:10.37,2013-02-25 04:16:00,
2013-02-25 05:21:00,34.4,32.3,30.15,NE,52,5.3,10.4,92,0.00,OVC,,0.00,0.0,WeatherDisplay:10.37,2013-02-25 04:21:00,
2013-02-25 05:26:00,34.5,32.4,30.15,ENE,58,9.0,11.5,92,0.00,OVC,,0.00,0.0,WeatherDisplay:10.37,2013-02-25 04:26:00,
2013-02-25 05:31:00,34.5,32.4,30.15,NNE,22,5.1,10.4,92,0.00,OVC,,0.00,0.0,WeatherDisplay:10.37,2013-02-25 04:31:00,
2013-02-25 05:36:00,34.5,32.4,30.15,NE,38,3.7,6.9,92,0.00,OVC,,0.00,0.0,WeatherDisplay:10.37,2013-02-25 04:36:00,
2013-02-25 05:41:00,34.5,32.4,30.15,NE,47,6.7,11.5,92,0.00,OVC,,0.00,0.0,WeatherDisplay:10.37,2013-02-25 04:41:00,
2013-02-25 05:46:00,34.5,32.4,30.15,ENE,60,9.0,12.7,92,0.00,OVC,,0.00,0.0,WeatherDisplay:10.37,2013-02-25 04:46:00,
2013-02-25 05:51:00,34.5,32.4,30.15,NE,53,3.0,5.8,92,0.00,OVC,,0.00,0.0,WeatherDisplay:10.37,2013-02-25 04:51:00,
2013-02-25 05:56:00,34.5,32.4,30.15,NE,47,5.3,11.5,92,0.00,OVC,,0.00,0.0,WeatherDisplay:10.37,2013-02-25 04:56:00,
2013-02-25 06:00:00,34.5,32.4,30.15,NE,36,4.4,9.2,92,0.00,OVC,,0.00,0.0,WeatherDisplay:10.37,2013-02-25 05:00:00,
2013-02-25 06:05:00,34.5,32.4,30.15,ENE,65,4.6,6.9,92,0.00,OVC,,0.00,0.0,WeatherDisplay:10.37,2013-02-25 05:05:00,
2013-02-25 06:10:00,34.5,32.4,30.15,NNE,26,3.4,7.0,92,0.00,OVC,,0.00,0.0,WeatherDisplay:10.37,2013-02-25 05:10:00,
2013-02-25 06:15:00,34.6,32.5,30.15,NNE,30,6.1,9.2,92,0.00,OVC,,0.00,0.0,WeatherDisplay:10.37,2013-02-25 05:15:00,
2013-02-25 06:20:00,34.5,32.4,30.15,NNE,22,3.9,5.0,92,0.00,OVC,,0.00,0.0,WeatherDisplay:10.37,2013-02-25 05:20:00,
2013-02-25 06:25:00,34.6,32.5,30.15,NNE,21,7.1,11.5,92,0.00,OVC,,0.00,0.0,WeatherDisplay:10.37,2013-02-25 05:25:00,
2013-02-25 06:30:00,34.6,32.5,30.15,NNE,23,7.4,11.5,92,0.00,OVC,,0.00,0.0,WeatherDisplay:10.37,2013-02-25 05:30:00,
2013-02-25 06:35:00,34.6,32.5,30.15,NE,42,5.0,10.0,92,0.00,OVC,,0.00,0.0,WeatherDisplay:10.37,2013-02-25 05:35:00,
2013-02-25 06:40:00,34.6,32.5,30.15,NE,49,6.9,10.4,92,0.00,OVC,,0.00,0.0,WeatherDisplay:10.37,2013-02-25 05:40:00,
2013-02-25 06:45:00,34.6,32.5,30.16,ENE,57,7.9,11.5,92,0.00,OVC,,0.00,0.0,WeatherDisplay:10.37,2013-02-25 05:45:00,
2013-02-25 06:50:00,34.6,32.5,30.16,ENE,63,7.1,11.5,92,0.00,OVC,,0.00,0.0,WeatherDisplay:10.37,2013-02-25 05:50:00,
2013-02-25 06:55:00,34.6,32.5,30.16,NNE,16,7.7,11.5,92,0.00,OVC,,0.00,0.0,WeatherDisplay:10.37,2013-02-25 05:55:00,
2013-02-25 07:00:00,34.6,32.5,30.16,NE,47,5.2,8.1,92,0.00,OVC,,0.00,0.0,WeatherDisplay:10.37,2013-02-25 06:00:00,
2013-02-25 07:05:00,34.6,32.5,30.16,NE,39,5.2,10.4,92,0.00,OVC,,0.00,0.0,WeatherDisplay:10.37,2013-02-25 06:05:00,
2013-02-25 07:10:00,34.6,32.5,30.16,NE,50,4.7,11.5,92,0.00,OVC,,0.00,0.0,WeatherDisplay:10.37,2013-02-25 06:10:00,
2013-02-25 07:15:00,34.6,32.5,30.17,ENE,57,7.9,10.4,92,0.00,OVC,,0.00,0.0,WeatherDisplay:10.37,2013-02-25 06:15:00,
2013-02-25 07:20:00,34.7,32.6,30.17,ENE,57,2.2,4.6,92,0.00,OVC,,0.00,0.0,WeatherDisplay:10.37,2013-02-25 06:20:00,
2013-02-25 07:25:00,34.7,32.6,30.17,NE,34,4.7,9.2,92,0.00,OVC,,0.00,0.0,WeatherDisplay:10.37,2013-02-25 06:25:00,
2013-02-25 07:30:00,34.7,32.6,30.17,NE,54,6.2,10.4,92,0.00,OVC,,0.00,0.0,WeatherDisplay:10.37,2013-02-25 06:30:00,
2013-02-25 07:35:00,34.7,32.6,30.17,NE,52,3.1,4.6,92,0.00,OVC,,0.00,0.0,WeatherDisplay:10.37,2013-02-25 06:35:00,
2013-02-25 07:40:00,34.8,32.7,30.18,NE,37,3.5,6.9,92,0.00,OVC,,0.00,0.0,WeatherDisplay:10.37,2013-02-25 06:40:00,
2013-02-25 07:45:00,34.8,32.7,30.18,ENE,61,3.9,8.1,92,0.00,OVC,,0.00,0.0,WeatherDisplay:10.37,2013-02-25 06:45:00,
2013-02-25 07:50:00,34.8,32.7,30.18,NE,36,4.1,5.8,92,0.00,OVC,,0.00,0.0,WeatherDisplay:10.37,2013-02-25 06:50:00,
2013-02-25 07:55:00,34.8,32.7,30.18,NNE,25,3.0,5.8,92,0.00,OVC,,0.00,5.0,WeatherDisplay:10.37,2013-02-25 06:55:00,
2013-02-25 08:00:00,34.8,32.7,30.18,NE,53,4.5,10.4,92,0.00,OVC,,0.00,5.0,WeatherDisplay:10.37,2013-02-25 07:00:00,
2013-02-25 08:05:00,34.8,32.7,30.18,NE,40,5.4,11.5,92,0.00,OVC,,0.00,7.0,WeatherDisplay:10.37,2013-02-25 07:05:00,
2013-02-25 08:10:00,34.8,32.7,30.18,NE,41,3.6,10.4,92,0.00,OVC,,0.00,9.0,WeatherDisplay:10.37,2013-02-25 07:10:00,
2013-02-25 08:15:00,34.8,32.7,30.18,ENE,62,5.6,6.9,92,0.00,OVC,,0.00,9.0,WeatherDisplay:10.37,2013-02-25 07:15:00,
2013-02-25 08:20:00,34.8,32.7,30.18,NE,49,2.4,3.5,92,0.00,OVC,,0.00,11.0,WeatherDisplay:10.37,2013-02-25 07:20:00,
2013-02-25 08:25:00,34.8,32.7,30.18,ENE,65,5.5,10.4,92,0.00,OVC,,0.00,16.0,WeatherDisplay:10.37,2013-02-25 07:25:00,
2013-02-25 08:30:00,34.8,32.7,30.18,ENE,65,2.1,5.8,92,0.00,OVC,,0.00,25.0,WeatherDisplay:10.37,2013-02-25 07:30:00,
2013-02-25 08:35:00,34.8,32.7,30.18,NE,35,6.8,11.0,92,0.00,OVC,,0.00,26.0,WeatherDisplay:10.37,2013-02-25 07:35:00,
2013-02-25 08:40:00,34.9,32.8,30.18,NNE,20,6.3,8.1,92,0.00,OVC,,0.00,21.0,WeatherDisplay:10.37,2013-02-25 07:40:00,
2013-02-25 08:45:00,34.9,32.8,30.18,NE,49,4.9,8.1,92,0.00,OVC,,0.00,19.0,WeatherDisplay:10.37,2013-02-25 07:45:00,
2013-02-25 08:50:00,34.9,32.8,30.19,NE,49,3.4,10.4,92,0.00,OVC,,0.00,33.0,WeatherDisplay:10.37,2013-02-25 07:50:00,
2013-02-25 08:55:00,34.9,32.8,30.19,NE,45,4.4,9.2,92,0.00,OVC,,0.00,30.0,WeatherDisplay:10.37,2013-02-25 07:55:00,
2013-02-25 09:00:00,35.0,32.9,30.19,ENE,65,3.4,5.8,92,0.00,OVC,,0.00,32.0,WeatherDisplay:10.37,2013-02-25 08:00:00,
2013-02-25 09:05:00,35.0,32.9,30.19,NE,38,3.7,9.2,92,0.00,OVC,,0.00,42.0,WeatherDisplay:10.37,2013-02-25 08:05:00,
2013-02-25 09:10:00,35.1,33.0,30.19,NE,54,2.5,5.8,92,0.00,OVC,,0.00,46.0,WeatherDisplay:10.37,2013-02-25 08:10:00,
2013-02-25 09:15:00,35.0,32.9,30.19,NE,40,6.0,11.5,92,0.00,OVC,,0.00,47.0,WeatherDisplay:10.37,2013-02-25 08:15:00,
2013-02-25 09:20:00,35.0,32.9,30.19,NE,52,6.6,8.1,92,0.00,OVC,,0.00,39.0,WeatherDisplay:10.37,2013-02-25 08:20:00,
2013-02-25 09:25:00,35.1,33.0,30.20,ENE,68,5.4,11.5,92,0.00,OVC,,0.00,37.0,WeatherDisplay:10.37,2013-02-25 08:25:00,
2013-02-25 09:30:00,35.1,33.0,30.20,NE,55,8.0,11.5,92,0.00,OVC,,0.00,44.0,WeatherDisplay:10.37,2013-02-25 08:30:00,
2013-02-25 09:35:00,35.1,33.0,30.20,ENE,64,5.1,11.0,92,0.00,OVC,,0.00,33.0,WeatherDisplay:10.37,2013-02-25 08:35:00,
2013-02-25 09:40:00,35.1,33.0,30.20,NE,45,7.6,10.4,92,0.00,OVC,,0.00,35.0,WeatherDisplay:10.37,2013-02-25 08:40:00,
2013-02-25 09:45:00,35.2,33.1,30.20,NE,53,6.8,10.0,92,0.00,OVC,,0.00,28.0,WeatherDisplay:10.37,2013-02-25 08:45:00,
2013-02-25 09:50:00,35.2,33.1,30.20,NE,55,10.8,15.0,92,0.00,OVC,,0.00,47.0,WeatherDisplay:10.37,2013-02-25 08:50:00,
2013-02-25 09:55:00,35.2,33.1,30.20,NE,34,9.2,12.7,92,0.00,OVC,,0.00,46.0,WeatherDisplay:10.37,2013-02-25 08:55:00,
2013-02-25 10:00:00,35.2,32.8,30.21,NE,54,6.7,11.5,91,0.00,OVC,,0.00,42.0,WeatherDisplay:10.37,2013-02-25 09:00:00,
2013-02-25 10:05:00,35.2,32.8,30.21,ENE,71,6.7,11.5,91,0.00,OVC,,0.00,47.0,WeatherDisplay:10.37,2013-02-25 09:05:00,
2013-02-25 10:10:00,35.3,32.9,30.21,ENE,63,5.4,11.5,91,0.00,OVC,,0.00,53.0,WeatherDisplay:10.37,2013-02-25 09:10:00,
2013-02-25 10:15:00,35.2,32.8,30.21,ENE,57,5.8,12.7,91,0.00,OVC,,0.00,51.0,WeatherDisplay:10.37,2013-02-25 09:15:00,
2013-02-25 10:20:00,35.3,32.9,30.21,NE,36,7.3,12.7,91,0.00,OVC,,0.00,54.0,WeatherDisplay:10.37,2013-02-25 09:20:00,
2013-02-25 10:25:00,35.3,32.9,30.21,NE,34,6.2,8.1,91,0.00,OVC,,0.00,65.0,WeatherDisplay:10.37,2013-02-25 09:25:00,
2013-02-25 10:30:00,35.2,32.8,30.21,NE,44,7.7,11.5,91,0.00,OVC,,0.00,60.0,WeatherDisplay:10.37,2013-02-25 09:30:00,
2013-02-25 10:35:00,35.3,32.9,30.21,ENE,63,6.4,7.0,91,0.00,OVC,,0.00,54.0,WeatherDisplay:10.37,2013-02-25 09:35:00,
2013-02-25 10:40:00,35.3,32.9,30.22,East,80,5.6,6.0,91,0.00,OVC,,0.00,60.0,WeatherDisplay:10.37,2013-02-25 09:40:00,
2013-02-25 10:45:00,35.3,32.9,30.22,NE,54,8.6,12.7,91,0.00,OVC,,0.00,65.0,WeatherDisplay:10.37,2013-02-25 09:45:00,
2013-02-25 10:50:00,35.2,32.8,30.22,ENE,66,10.2,12.7,91,0.00,OVC,,0.00,65.0,WeatherDisplay:10.37,2013-02-25 09:50:00,
2013-02-25 10:55:00,35.2,32.8,30.22,NE,41,4.8,11.5,91,0.00,OVC,,0.00,81.0,WeatherDisplay:10.37,2013-02-25 09:55:00,
2013-02-25 11:00:00,35.3,32.9,30.22,NE,51,3.7,5.8,91,0.00,OVC,,0.00,81.0,WeatherDisplay:10.37,2013-02-25 10:00:00,
2013-02-25 11:05:00,35.3,32.9,30.23,NE,42,4.5,4.6,91,0.00,OVC,,0.00,76.0,WeatherDisplay:10.37,2013-02-25 10:05:00,
2013-02-25 11:10:00,35.3,32.9,30.22,NE,40,3.6,10.4,91,0.00,OVC,,0.00,72.0,WeatherDisplay:10.37,2013-02-25 10:10:00,
2013-02-25 11:15:00,35.4,33.0,30.23,NE,38,2.9,4.6,91,0.00,OVC,,0.00,76.0,WeatherDisplay:10.37,2013-02-25 10:15:00,
2013-02-25 11:20:00,35.5,33.4,30.23,NNE,23,4.6,6.9,92,0.00,OVC,,0.00,104.0,WeatherDisplay:10.37,2013-02-25 10:20:00,
2013-02-25 11:25:00,35.6,33.5,30.23,ENE,59,5.0,8.1,92,0.00,OVC,,0.00,83.0,WeatherDisplay:10.37,2013-02-25 10:25:00,
2013-02-25 11:30:00,35.6,33.2,30.23,NNE,32,3.5,5.0,91,0.00,OVC,,0.00,97.0,WeatherDisplay:10.37,2013-02-25 10:30:00,
2013-02-25 11:35:00,35.7,33.6,30.22,NNE,26,3.7,4.6,92,0.00,OVC,,0.00,102.0,WeatherDisplay:10.37,2013-02-25 10:35:00,
2013-02-25 11:40:00,35.7,33.6,30.22,NE,41,4.4,7.0,92,0.00,OVC,,0.00,104.0,WeatherDisplay:10.37,2013-02-25 10:40:00,
2013-02-25 11:45:00,35.9,33.5,30.22,NNE,26,5.4,8.1,91,0.00,OVC,,0.00,93.0,WeatherDisplay:10.37,2013-02-25 10:45:00,
2013-02-25 11:50:00,35.9,33.5,30.23,North,351,5.1,6.9,91,0.00,OVC,,0.00,77.0,WeatherDisplay:10.37,2013-02-25 10:50:00,
2013-02-25 11:55:00,35.9,33.5,30.23,NNE,18,7.2,10.4,91,0.00,OVC,,0.00,79.0,WeatherDisplay:10.37,2013-02-25 10:55:00,
2013-02-25 12:00:00,35.8,33.4,30.23,NE,47,4.8,6.9,91,0.00,OVC,,0.00,70.0,WeatherDisplay:10.37,2013-02-25 11:00:00,
2013-02-25 12:05:00,35.9,33.5,30.23,NNE,22,3.4,10.4,91,0.00,OVC,,0.00,81.0,WeatherDisplay:10.37,2013-02-25 11:05:00,
2013-02-25 12:10:00,35.9,33.8,30.23,ENE,62,6.2,11.5,92,0.00,OVC,,0.00,69.0,WeatherDisplay:10.37,2013-02-25 11:10:00,
2013-02-25 12:15:00,36.0,33.9,30.23,ENE,61,4.7,8.1,92,0.00,OVC,,0.00,76.0,WeatherDisplay:10.37,2013-02-25 11:15:00,
2013-02-25 12:20:00,35.9,33.8,30.23,NE,36,6.5,12.7,92,0.00,OVC,,0.00,77.0,WeatherDisplay:10.37,2013-02-25 11:20:00,
2013-02-25 12:25:00,35.9,33.8,30.23,NNE,26,5.8,10.4,92,0.00,OVC,,0.00,95.0,WeatherDisplay:10.37,2013-02-25 11:25:00,
2013-02-25 12:30:00,36.0,33.9,30.23,NE,45,2.6,4.6,92,0.00,OVC,,0.00,97.0,WeatherDisplay:10.37,2013-02-25 11:30:00,
2013-02-25 12:35:00,36.1,34.0,30.23,NNE,28,3.4,4.6,92,0.00,OVC,,0.00,137.0,WeatherDisplay:10.37,2013-02-25 11:35:00,
2013-02-25 12:40:00,36.2,34.1,30.23,NNE,30,5.4,9.2,92,0.00,OVC,,0.00,121.0,WeatherDisplay:10.37,2013-02-25 11:40:00,
2013-02-25 12:45:00,36.3,34.2,30.23,NE,45,6.8,11.5,92,0.00,OVC,,0.00,116.0,WeatherDisplay:10.37,2013-02-25 11:45:00,
2013-02-25 12:50:00,36.3,34.2,30.23,ENE,57,5.7,10.4,92,0.00,OVC,,0.00,98.0,WeatherDisplay:10.37,2013-02-25 11:50:00,
2013-02-25 12:55:00,36.4,34.3,30.23,ENE,74,5.6,8.0,92,0.00,OVC,,0.00,100.0,WeatherDisplay:10.37,2013-02-25 11:55:00,
2013-02-25 13:00:00,36.5,34.4,30.23,NNE,31,4.4,8.0,92,0.00,OVC,,0.00,91.0,WeatherDisplay:10.37,2013-02-25 12:00:00,
2013-02-25 13:05:00,36.6,34.2,30.23,NNE,26,4.3,11.5,91,0.00,OVC,,0.00,95.0,WeatherDisplay:10.37,2013-02-25 12:05:00,
2013-02-25 13:10:00,36.7,34.6,30.22,NE,42,3.2,8.1,92,0.00,OVC,,0.00,163.0,WeatherDisplay:10.37,2013-02-25 12:10:00,
2013-02-25 13:15:00,36.8,34.7,30.23,ENE,62,8.4,12.0,92,0.00,OVC,,0.00,107.0,WeatherDisplay:10.37,2013-02-25 12:15:00,
2013-02-25 13:20:00,36.7,34.3,30.23,ENE,60,7.8,12.7,91,0.00,OVC,,0.00,79.0,WeatherDisplay:10.37,2013-02-25 12:20:00,
2013-02-25 13:25:00,36.8,34.4,30.23,ENE,60,7.1,10.4,91,0.00,OVC,,0.00,60.0,WeatherDisplay:10.37,2013-02-25 12:25:00,
2013-02-25 13:30:00,36.8,34.4,30.23,NE,38,4.6,9.0,91,0.00,OVC,,0.00,69.0,WeatherDisplay:10.37,2013-02-25 12:30:00,
2013-02-25 13:35:00,36.8,34.4,30.23,NNE,22,3.7,5.8,91,0.00,OVC,,0.00,69.0,WeatherDisplay:10.37,2013-02-25 12:35:00,
2013-02-25 13:40:00,36.8,34.4,30.22,NNE,24,5.2,6.0,91,0.00,OVC,,0.00,53.0,WeatherDisplay:10.37,2013-02-25 12:40:00,
2013-02-25 13:46:00,36.8,34.4,30.22,NE,44,5.9,10.4,91,0.00,OVC,,0.00,60.0,WeatherDisplay:10.37,2013-02-25 12:46:00,
2013-02-25 13:51:00,36.8,34.4,30.22,NE,38,3.0,3.5,91,0.00,OVC,,0.00,70.0,WeatherDisplay:10.37,2013-02-25 12:51:00,
2013-02-25 13:57:00,36.8,34.4,30.22,NNE,26,7.6,9.2,91,0.00,OVC,,0.00,121.0,WeatherDisplay:10.37,2013-02-25 12:57:00,
2013-02-25 14:02:00,36.9,34.8,30.21,NE,47,3.3,4.0,92,0.00,OVC,,0.00,120.0,WeatherDisplay:10.37,2013-02-25 13:02:00,
2013-02-25 14:07:00,37.1,34.7,30.22,NE,54,3.3,8.1,91,0.00,OVC,,0.00,98.0,WeatherDisplay:10.37,2013-02-25 13:07:00,
2013-02-25 14:12:00,37.1,34.7,30.22,NE,44,7.2,8.0,91,0.00,OVC,,0.00,93.0,WeatherDisplay:10.37,2013-02-25 13:12:00,
2013-02-25 14:17:00,37.2,34.8,30.22,NE,42,3.9,5.8,91,0.00,OVC,,0.00,84.0,WeatherDisplay:10.37,2013-02-25 13:17:00,
2013-02-25 14:22:00,37.2,34.8,30.21,ENE,57,4.8,8.1,91,0.00,OVC,,0.00,81.0,WeatherDisplay:10.37,2013-02-25 13:22:00,
2013-02-25 14:27:00,37.2,34.8,30.21,NE,38,3.7,8.1,91,0.00,OVC,,0.00,95.0,WeatherDisplay:10.37,2013-02-25 13:27:00,
2013-02-25 14:32:00,37.2,34.8,30.21,NNW,347,6.4,6.4,91,0.00,OVC,,0.00,93.0,WeatherDisplay:10.37,2013-02-25 13:32:00,
2013-02-25 14:37:00,37.2,34.8,30.21,NNE,30,5.4,6.9,91,0.00,OVC,,0.00,79.0,WeatherDisplay:10.37,2013-02-25 13:37:00,
2013-02-25 14:42:00,37.3,34.9,30.21,NE,42,3.8,11.5,91,0.00,OVC,,0.00,79.0,WeatherDisplay:10.37,2013-02-25 13:42:00,
2013-02-25 14:47:00,37.2,34.8,30.21,NE,40,6.2,12.7,91,0.00,OVC,,0.00,77.0,WeatherDisplay:10.37,2013-02-25 13:47:00,
2013-02-25 14:52:00,37.3,34.9,30.21,North,9,6.4,8.1,91,0.00,OVC,,0.00,84.0,WeatherDisplay:10.37,2013-02-25 13:52:00,
2013-02-25 14:57:00,37.3,34.9,30.20,NNE,30,4.5,11.5,91,0.00,OVC,,0.00,76.0,WeatherDisplay:10.37,2013-02-25 13:57:00,
2013-02-25 15:02:00,37.4,35.0,30.21,NNE,26,6.8,12.0,91,0.00,OVC,,0.00,47.0,WeatherDisplay:10.37,2013-02-25 14:02:00,
2013-02-25 15:07:00,37.3,34.9,30.21,NE,45,7.2,11.5,91,0.00,OVC,,0.00,58.0,WeatherDisplay:10.37,2013-02-25 14:07:00,
2013-02-25 15:15:00,37.4,35.0,30.20,ENE,60,8.8,17.3,91,0.00,OVC,,0.00,100.0,WeatherDisplay:10.37,2013-02-25 14:15:00,
2013-02-25 15:21:00,37.4,35.0,30.20,NE,41,10.0,16.1,91,0.00,OVC,,0.00,76.0,WeatherDisplay:10.37,2013-02-25 14:21:00,
2013-02-25 15:26:00,37.4,35.0,30.21,NNE,26,8.8,12.7,91,0.00,OVC,,0.00,63.0,WeatherDisplay:10.37,2013-02-25 14:26:00,
2013-02-25 15:31:00,37.3,34.9,30.21,NE,51,5.5,10.4,91,0.00,OVC,,0.00,70.0,WeatherDisplay:10.37,2013-02-25 14:31:00,
2013-02-25 15:36:00,37.3,34.9,30.21,NNE,26,9.5,11.5,91,0.00,OVC,,0.00,67.0,WeatherDisplay:10.37,2013-02-25 14:36:00,
2013-02-25 15:41:00,37.3,34.6,30.21,NE,53,10.0,17.3,90,0.00,OVC,,0.00,40.0,WeatherDisplay:10.37,2013-02-25 14:41:00,
2013-02-25 15:46:00,37.3,34.6,30.21,ENE,60,10.5,16.1,90,0.00,OVC,,0.00,28.0,WeatherDisplay:10.37,2013-02-25 14:46:00,
2013-02-25 15:51:00,37.3,34.6,30.21,ENE,63,6.2,8.1,90,0.00,OVC,,0.00,21.0,WeatherDisplay:10.37,2013-02-25 14:51:00,
2013-02-25 15:56:00,37.2,34.5,30.21,NE,38,8.1,12.7,90,0.00,OVC,,0.00,23.0,WeatherDisplay:10.37,2013-02-25 14:56:00,
2013-02-25 16:01:00,37.2,34.5,30.21,North,8,8.0,16.1,90,0.00,OVC,,0.00,32.0,WeatherDisplay:10.37,2013-02-25 15:01:00,
2013-02-25 16:06:00,37.1,34.7,30.21,ENE,62,7.0,11.5,91,0.00,OVC,,0.00,32.0,WeatherDisplay:10.37,2013-02-25 15:06:00,
2013-02-25 16:11:00,37.1,34.7,30.21,NNE,30,8.0,11.5,91,0.00,OVC,,0.00,25.0,WeatherDisplay:10.37,2013-02-25 15:11:00,
2013-02-25 16:16:00,37.1,34.7,30.21,NE,52,9.1,12.7,91,0.00,OVC,,0.00,16.0,WeatherDisplay:10.37,2013-02-25 15:16:00,
2013-02-25 16:21:00,37.0,34.6,30.21,ENE,62,7.3,11.5,91,0.00,OVC,,0.00,18.0,WeatherDisplay:10.37,2013-02-25 15:21:00,
2013-02-25 16:26:00,37.0,34.6,30.21,NNE,26,9.2,11.5,91,0.00,OVC,,0.00,25.0,WeatherDisplay:10.37,2013-02-25 15:26:00,
2013-02-25 16:31:00,37.0,34.6,30.21,NNE,30,9.1,12.7,91,0.00,OVC,,0.00,32.0,WeatherDisplay:10.37,2013-02-25 15:31:00,
2013-02-25 16:36:00,36.9,34.5,30.21,NE,38,9.8,13.8,91,0.00,OVC,,0.00,35.0,WeatherDisplay:10.37,2013-02-25 15:36:00,
2013-02-25 16:41:00,36.8,34.4,30.22,ENE,59,8.1,10.4,91,0.00,OVC,,0.00,30.0,WeatherDisplay:10.37,2013-02-25 15:41:00,
2013-02-25 16:46:00,36.8,34.4,30.21,NE,45,9.1,16.1,91,0.00,OVC,,0.00,28.0,WeatherDisplay:10.37,2013-02-25 15:46:00,
2013-02-25 16:51:00,36.8,34.4,30.21,NE,47,10.3,16.1,91,0.00,OVC,,0.00,16.0,WeatherDisplay:10.37,2013-02-25 15:51:00,
2013-02-25 16:56:00,36.8,34.1,30.22,NE,47,7.8,14.0,90,0.00,OVC,,0.00,12.0,WeatherDisplay:10.37,2013-02-25 15:56:00,
2013-02-25 17:01:00,36.8,34.1,30.22,NE,34,9.6,18.4,90,0.00,OVC,,0.00,19.0,WeatherDisplay:10.37,2013-02-25 16:01:00,
2013-02-25 17:06:00,36.8,34.1,30.22,NE,50,10.7,16.1,90,0.00,OVC,,0.00,21.0,WeatherDisplay:10.37,2013-02-25 16:06:00,
2013-02-25 17:11:00,36.8,34.1,30.22,ENE,61,9.8,12.7,90,0.00,OVC,,0.00,14.0,WeatherDisplay:10.37,2013-02-25 16:11:00,
2013-02-25 17:16:00,36.7,34.0,30.22,NE,53,8.3,16.1,90,0.00,OVC,,0.00,7.0,WeatherDisplay:10.37,2013-02-25 16:16:00,
2013-02-25 17:21:00,36.7,34.0,30.22,NE,52,6.1,10.0,90,0.00,OVC,,0.00,9.0,WeatherDisplay:10.37,2013-02-25 16:21:00,
2013-02-25 17:26:00,36.7,34.0,30.22,NNE,33,10.0,15.0,90,0.00,OVC,,0.00,7.0,WeatherDisplay:10.37,2013-02-25 16:26:00,
2013-02-25 17:31:00,36.7,34.0,30.22,ENE,67,12.3,17.3,90,0.00,OVC,,0.00,5.0,WeatherDisplay:10.37,2013-02-25 16:31:00,
2013-02-25 17:36:00,36.6,33.9,30.22,NE,51,9.7,15.0,90,0.00,OVC,,0.00,5.0,WeatherDisplay:10.37,2013-02-25 16:36:00,
2013-02-25 17:41:00,36.6,33.9,30.22,NE,47,4.5,6.9,90,0.00,OVC,,0.00,0.0,WeatherDisplay:10.37,2013-02-25 16:41:00,
2013-02-25 17:46:00,36.4,34.0,30.22,ENE,63,12.5,18.4,91,0.00,OVC,,0.00,5.0,WeatherDisplay:10.37,2013-02-25 16:46:00,
2013-02-25 17:51:00,36.3,33.9,30.22,ENE,60,12.0,16.1,91,0.00,OVC,,0.00,0.0,WeatherDisplay:10.37,2013-02-25 16:51:00,
2013-02-25 17:56:00,36.2,33.8,30.22,ENE,71,10.1,15.0,91,0.00,OVC,,0.00,0.0,WeatherDisplay:10.37,2013-02-25 16:56:00,
2013-02-25 18:01:00,36.1,34.0,30.23,ENE,73,9.2,13.8,92,0.00,-RA,,0.00,0.0,WeatherDisplay:10.37,2013-02-25 17:01:00,
2013-02-25 18:06:00,35.9,33.8,30.23,ENE,63,12.1,17.3,92,0.00,-RA,,0.00,0.0,WeatherDisplay:10.37,2013-02-25 17:06:00,
2013-02-25 18:11:00,35.9,33.8,30.23,NE,51,4.7,7.0,92,0.00,-RA,,0.00,0.0,WeatherDisplay:10.37,2013-02-25 17:11:00,
2013-02-25 18:16:00,35.8,33.7,30.23,NE,49,6.4,11.5,92,0.00,-RA,,0.00,0.0,WeatherDisplay:10.37,2013-02-25 17:16:00,
2013-02-25 18:21:00,35.8,33.7,30.23,East,86,11.5,16.1,92,0.01,-RA,,0.01,0.0,WeatherDisplay:10.37,2013-02-25 17:21:00,
2013-02-25 18:26:00,35.7,33.6,30.23,NNE,27,9.4,15.0,92,0.01,-RA,,0.01,0.0,WeatherDisplay:10.37,2013-02-25 17:26:00,
2013-02-25 18:31:00,35.7,33.9,30.23,NE,40,4.4,11.5,93,0.01,-RA,,0.01,0.0,WeatherDisplay:10.37,2013-02-25 17:31:00,
2013-02-25 18:36:00,35.6,33.8,30.23,ENE,67,12.0,18.4,93,0.01,-RA,,0.01,0.0,WeatherDisplay:10.37,2013-02-25 17:36:00,
2013-02-25 18:41:00,35.6,33.8,30.23,NE,52,8.0,11.5,93,0.01,-RA,,0.01,0.0,WeatherDisplay:10.37,2013-02-25 17:41:00,
2013-02-25 18:46:00,35.6,33.8,30.24,NE,55,11.4,18.4,93,0.01,-RA,,0.01,0.0,WeatherDisplay:10.37,2013-02-25 17:46:00,
2013-02-25 18:51:00,35.5,33.7,30.24,NE,45,8.7,13.8,93,0.01,-RA,,0.01,0.0,WeatherDisplay:10.37,2013-02-25 17:51:00,
2013-02-25 18:56:00,35.5,33.7,30.24,ENE,59,8.7,11.5,93,0.01,-RA,,0.01,0.0,WeatherDisplay:10.37,2013-02-25 17:56:00,
2013-02-25 19:01:00,35.5,33.9,30.24,ENE,64,8.8,12.7,94,0.01,-RA,,0.02,0.0,WeatherDisplay:10.37,2013-02-25 18:01:00,
2013-02-25 19:06:00,35.5,33.9,30.24,NE,48,10.4,17.3,94,0.02,-RA,,0.02,0.0,WeatherDisplay:10.37,2013-02-25 18:06:00,
2013-02-25 19:11:00,35.4,33.8,30.24,ENE,63,6.0,11.5,94,0.02,-RA,,0.02,0.0,WeatherDisplay:10.37,2013-02-25 18:11:00,
2013-02-25 19:16:00,35.3,33.7,30.25,NE,51,9.7,18.4,94,0.02,-RA,,0.02,0.0,WeatherDisplay:10.37,2013-02-25 18:16:00,
2013-02-25 19:21:00,35.4,33.8,30.25,NE,51,6.4,12.7,94,0.01,-RA,,0.02,0.0,WeatherDisplay:10.37,2013-02-25 18:21:00,
2013-02-25 19:26:00,35.4,33.8,30.25,ENE,60,7.8,10.4,94,0.01,-RA,,0.02,0.0,WeatherDisplay:10.37,2013-02-25 18:26:00,
2013-02-25 19:31:00,35.4,33.8,30.25,NE,56,5.9,12.7,94,0.01,-RA,,0.02,0.0,WeatherDisplay:10.37,2013-02-25 18:31:00,
2013-02-25 19:36:00,35.4,33.8,30.25,NE,44,9.8,13.8,94,0.01,-RA,,0.02,0.0,WeatherDisplay:10.37,2013-02-25 18:36:00,
2013-02-25 19:41:00,35.4,33.8,30.25,ENE,61,5.6,7.0,94,0.01,-RA,,0.02,0.0,WeatherDisplay:10.37,2013-02-25 18:41:00,
2013-02-25 19:46:00,35.4,33.8,30.25,East,81,9.0,13.8,94,0.01,-RA,,0.02,0.0,WeatherDisplay:10.37,2013-02-25 18:46:00,
2013-02-25 19:51:00,35.5,33.9,30.25,NE,47,6.8,11.5,94,0.01,-RA,,0.02,0.0,WeatherDisplay:10.37,2013-02-25 18:51:00,
2013-02-25 19:56:00,35.5,33.9,30.25,NE,38,5.9,12.0,94,0.01,-RA,,0.02,0.0,WeatherDisplay:10.37,2013-02-25 18:56:00,
2013-02-25 20:01:00,35.5,33.9,30.25,NE,50,5.1,11.5,94,0.01,-RA,,0.02,0.0,WeatherDisplay:10.37,2013-02-25 19:01:00,
2013-02-25 20:06:00,35.4,33.8,30.25,ENE,69,5.9,11.5,94,0.00,-RA,,0.02,0.0,WeatherDisplay:10.37,2013-02-25 19:06:00,
2013-02-25 20:11:00,35.5,33.9,30.26,ENE,64,6.8,11.5,94,0.00,OVC,,0.02,0.0,WeatherDisplay:10.37,2013-02-25 19:11:00,
2013-02-25 20:16:00,35.5,33.9,30.26,ENE,67,4.5,5.8,94,0.00,OVC,,0.02,0.0,WeatherDisplay:10.37,2013-02-25 19:16:00,
2013-02-25 20:21:00,35.5,33.9,30.26,ENE,65,7.5,15.0,94,0.00,OVC,,0.02,0.0,WeatherDisplay:10.37,2013-02-25 19:21:00,
2013-02-25 20:26:00,35.6,34.0,30.26,NNE,18,8.3,12.0,94,0.00,OVC,,0.02,0.0,WeatherDisplay:10.37,2013-02-25 19:26:00,
2013-02-25 20:31:00,35.5,33.9,30.26,NE,40,5.0,11.0,94,0.00,OVC,,0.02,0.0,WeatherDisplay:10.37,2013-02-25 19:31:00,
2013-02-25 20:36:00,35.6,34.0,30.26,NE,38,6.5,10.4,94,0.00,OVC,,0.02,0.0,WeatherDisplay:10.37,2013-02-25 19:36:00,
2013-02-25 20:41:00,35.6,33.8,30.26,NE,44,5.1,10.0,93,0.00,OVC,,0.02,0.0,WeatherDisplay:10.37,2013-02-25 19:41:00,
2013-02-25 20:46:00,35.6,33.8,30.27,NE,52,4.7,10.4,93,0.00,OVC,,0.02,0.0,WeatherDisplay:10.37,2013-02-25 19:46:00,
2013-02-25 20:51:00,35.6,33.8,30.27,NE,51,9.2,12.7,93,0.00,OVC,,0.02,0.0,WeatherDisplay:10.37,2013-02-25 19:51:00,
2013-02-25 20:56:00,35.6,33.8,30.27,NNE,22,5.9,12.0,93,0.00,OVC,,0.02,0.0,WeatherDisplay:10.37,2013-02-25 19:56:00,
2013-02-25 21:01:00,35.6,33.8,30.27,NE,46,9.9,13.8,93,0.00,OVC,,0.02,0.0,WeatherDisplay:10.37,2013-02-25 20:01:00,
2013-02-25 21:06:00,35.6,33.8,30.27,East,84,10.2,16.1,93,0.00,OVC,,0.02,0.0,WeatherDisplay:10.37,2013-02-25 20:06:00,
2013-02-25 21:11:00,35.7,33.9,30.27,ENE,74,5.6,13.8,93,0.00,OVC,,0.02,0.0,WeatherDisplay:10.37,2013-02-25 20:11:00,
2013-02-25 21:16:00,35.7,33.9,30.27,ENE,58,9.2,15.0,93,0.00,OVC,,0.02,0.0,WeatherDisplay:10.37,2013-02-25 20:16:00,
2013-02-25 21:21:00,35.7,33.9,30.27,ENE,78,6.1,11.5,93,0.00,OVC,,0.02,0.0,WeatherDisplay:10.37,2013-02-25 20:21:00,
2013-02-25 21:26:00,35.7,33.9,30.27,NE,56,11.7,17.3,93,0.00,OVC,,0.02,0.0,WeatherDisplay:10.37,2013-02-25 20:26:00,
2013-02-25 21:31:00,35.7,33.9,30.27,NE,48,8.8,11.5,93,0.00,OVC,,0.02,0.0,WeatherDisplay:10.37,2013-02-25 20:31:00,
2013-02-25 21:36:00,35.7,33.9,30.27,NE,54,7.1,10.4,93,0.00,OVC,,0.02,0.0,WeatherDisplay:10.37,2013-02-25 20:36:00,
2013-02-25 21:41:00,35.7,33.9,30.27,ENE,65,7.8,12.7,93,0.00,OVC,,0.02,0.0,WeatherDisplay:10.37,2013-02-25 20:41:00,
2013-02-25 21:46:00,35.7,33.9,30.28,East,79,8.3,15.0,93,0.00,OVC,,0.02,0.0,WeatherDisplay:10.37,2013-02-25 20:46:00,
2013-02-25 21:51:00,35.7,33.9,30.28,ENE,57,8.8,13.8,93,0.00,OVC,,0.02,0.0,WeatherDisplay:10.37,2013-02-25 20:51:00,
2013-02-25 21:56:00,35.7,33.9,30.28,NE,45,8.2,11.5,93,0.00,OVC,,0.02,0.0,WeatherDisplay:10.37,2013-02-25 20:56:00,
2013-02-25 22:01:00,35.6,33.8,30.28,ENE,59,7.0,15.0,93,0.00,OVC,,0.02,0.0,WeatherDisplay:10.37,2013-02-25 21:01:00,
2013-02-25 22:06:00,35.6,33.8,30.28,ENE,63,5.4,8.1,93,0.00,OVC,,0.02,0.0,WeatherDisplay:10.37,2013-02-25 21:06:00,
2013-02-25 22:11:00,35.6,33.8,30.28,ENE,65,6.5,11.5,93,0.00,OVC,,0.02,0.0,WeatherDisplay:10.37,2013-02-25 21:11:00,
2013-02-25 22:16:00,35.6,34.0,30.28,NE,44,9.0,13.8,94,0.00,OVC,,0.02,0.0,WeatherDisplay:10.37,2013-02-25 21:16:00,
2013-02-25 22:21:00,35.6,34.0,30.29,ENE,70,8.2,17.0,94,0.00,OVC,,0.02,0.0,WeatherDisplay:10.37,2013-02-25 21:21:00,
2013-02-25 22:26:00,35.5,33.9,30.28,ENE,67,5.8,8.1,94,0.00,OVC,,0.02,0.0,WeatherDisplay:10.37,2013-02-25 21:26:00,
2013-02-25 22:31:00,35.5,33.9,30.29,NE,52,6.9,11.5,94,0.00,OVC,,0.02,0.0,WeatherDisplay:10.37,2013-02-25 21:31:00,
2013-02-25 22:36:00,35.5,33.9,30.29,NE,55,7.7,11.5,94,0.00,OVC,,0.02,0.0,WeatherDisplay:10.37,2013-02-25 21:36:00,
2013-02-25 22:41:00,35.5,33.9,30.29,ENE,61,9.0,11.5,94,0.00,OVC,,0.02,0.0,WeatherDisplay:10.37,2013-02-25 21:41:00,
2013-02-25 22:46:00,35.5,33.9,30.29,ENE,65,6.2,10.4,94,0.00,OVC,,0.02,0.0,WeatherDisplay:10.37,2013-02-25 21:46:00,
2013-02-25 22:51:00,35.5,33.9,30.29,NE,56,5.8,10.4,94,0.00,OVC,,0.02,0.0,WeatherDisplay:10.37,2013-02-25 21:51:00,
2013-02-25 22:56:00,35.5,33.9,30.29,ENE,64,9.4,17.3,94,0.00,OVC,,0.02,0.0,WeatherDisplay:10.37,2013-02-25 21:56:00,
2013-02-25 23:01:00,35.5,33.9,30.29,East,89,5.1,9.2,94,0.00,OVC,,0.02,0.0,WeatherDisplay:10.37,2013-02-25 22:01:00,
2013-02-25 23:06:00,35.5,34.2,30.29,ENE,75,5.9,10.4,95,0.00,OVC,,0.02,0.0,WeatherDisplay:10.37,2013-02-25 22:06:00,
2013-02-25 23:11:00,35.5,34.2,30.30,East,81,6.8,8.1,95,0.00,OVC,,0.02,0.0,WeatherDisplay:10.37,2013-02-25 22:11:00,
2013-02-25 23:16:00,35.5,34.2,30.30,ENE,61,8.6,12.7,95,0.00,OVC,,0.02,0.0,WeatherDisplay:10.37,2013-02-25 22:16:00,
2013-02-25 23:21:00,35.5,34.2,30.29,ENE,70,5.0,11.5,95,0.00,OVC,,0.02,0.0,WeatherDisplay:10.37,2013-02-25 22:21:00,
2013-02-25 23:26:00,35.5,34.2,30.30,ENE,60,8.5,11.5,95,0.00,OVC,,0.02,0.0,WeatherDisplay:10.37,2013-02-25 22:26:00,
2013-02-25 23:31:00,35.5,34.2,30.30,ENE,65,6.9,11.5,95,0.00,OVC,,0.02,0.0,WeatherDisplay:10.37,2013-02-25 22:31:00,
2013-02-25 23:36:00,35.5,34.2,30.30,NE,52,6.4,13.8,95,0.00,OVC,,0.02,0.0,WeatherDisplay:10.37,2013-02-25 22:36:00,
2013-02-25 23:41:00,35.6,34.3,30.30,ENE,61,8.5,11.5,95,0.00,OVC,,0.02,0.0,WeatherDisplay:10.37,2013-02-25 22:41:00,
2013-02-25 23:46:00,35.6,34.3,30.30,ENE,67,8.8,12.7,95,0.00,OVC,,0.02,0.0,WeatherDisplay:10.37,2013-02-25 22:46:00,
2013-02-25 23:51:00,35.6,34.3,30.30,ENE,63,8.5,11.5,95,0.00,OVC,,0.02,0.0,WeatherDisplay:10.37,2013-02-25 22:51:00,
2013-02-25 23:56:00,35.6,34.3,30.30,NE,50,7.0,15.0,95,0.00,OVC,,0.02,0.0,WeatherDisplay:10.37,2013-02-25 22:56:00,